createdAt,value
2022-10-25T00:00:26.908Z,100307.81
2022-10-25T00:02:54.773Z,100121.50
2022-10-25T00:05:23.281Z,100211.38
2022-10-25T00:07:51.118Z,99942.09
2022-10-25T00:10:21.115Z,100164.59
2022-10-25T00:12:52.655Z,100385.25
2022-10-25T00:15:20.779Z,100380.22
2022-10-25T00:17:51.027Z,100218.72
2022-10-25T00:20:21.232Z,100352.34
2022-10-25T00:22:49.533Z,100386.09
2022-10-25T00:25:17.688Z,100232.13
2022-10-25T00:27:45.658Z,100285.72
2022-10-25T00:30:14.309Z,100396.66
2022-10-25T00:32:42.427Z,99832.69
2022-10-25T00:35:12.001Z,100379.16
2022-10-25T00:37:39.888Z,100187.44
2022-10-25T00:40:08.938Z,100204.66
2022-10-25T00:42:36.902Z,100338.00
2022-10-25T00:45:20.443Z,100285.63
2022-10-25T00:47:53.645Z,100176.22
2022-10-25T00:50:34.018Z,100299.63
2022-10-25T00:53:08.271Z,100308.84
2022-10-25T00:55:42.022Z,100407.13
2022-10-25T00:58:14.652Z,100381.75
2022-10-25T01:00:45.198Z,100407.50
2022-10-25T01:03:14.880Z,100387.81
2022-10-25T01:05:44.827Z,100333.97
2022-10-25T01:08:13.471Z,100078.00
2022-10-25T01:10:42.221Z,100442.22
2022-10-25T01:13:10.364Z,100424.16
2022-10-25T01:15:43.632Z,100339.81
2022-10-25T01:18:18.673Z,100420.13
2022-10-25T01:21:25.469Z,100196.56
2022-10-25T01:24:10.631Z,100199.63
2022-10-25T01:27:11.286Z,100129.28
2022-10-25T01:30:06.534Z,99899.56
2022-10-25T01:32:43.282Z,100389.91
2022-10-25T01:35:20.014Z,100239.25
2022-10-25T01:38:00.476Z,100339.28
2022-10-25T01:40:35.148Z,100220.47
2022-10-25T01:43:09.791Z,100204.44
2022-10-25T01:45:43.765Z,100037.91
2022-10-25T01:48:16.439Z,100040.22
2022-10-25T01:50:48.586Z,100103.28
2022-10-25T01:53:16.800Z,100276.41
2022-10-25T01:55:53.878Z,100232.66
2022-10-25T01:58:39.623Z,100318.25
2022-10-25T02:01:16.033Z,100232.72
2022-10-25T02:03:53.362Z,100216.88
2022-10-25T02:06:29.592Z,99960.13
2022-10-25T02:09:02.821Z,99899.56
2022-10-25T02:11:32.461Z,100440.47
2022-10-25T02:14:13.935Z,100348.75
2022-10-25T02:16:46.008Z,100433.38
2022-10-25T02:19:21.112Z,100349.16
2022-10-25T02:21:52.520Z,100181.84
2022-10-25T02:24:24.318Z,100276.38
2022-10-25T02:26:54.555Z,100334.78
2022-10-25T02:29:25.099Z,100379.13
2022-10-25T02:31:53.128Z,100188.81
2022-10-25T02:34:22.780Z,100228.50
2022-10-25T02:36:51.621Z,100425.69
2022-10-25T02:39:20.896Z,100424.69
2022-10-25T02:41:48.925Z,100098.22
2022-10-25T02:44:17.487Z,100425.31
2022-10-25T02:46:45.312Z,100327.47
2022-10-25T02:49:13.440Z,100426.00
2022-10-25T02:51:42.715Z,100415.09
2022-10-25T02:54:10.742Z,100186.69
2022-10-25T02:56:39.583Z,100221.97
2022-10-25T02:59:07.608Z,100153.97
2022-10-25T03:01:35.657Z,100068.13
2022-10-25T03:04:03.698Z,100345.53
2022-10-25T03:06:31.533Z,100442.16
2022-10-25T03:09:00.714Z,100248.25
2022-10-25T03:11:28.691Z,100448.63
2022-10-25T03:13:56.630Z,100169.31
2022-10-25T03:16:24.518Z,100272.84
2022-10-25T03:18:52.383Z,100355.44
2022-10-25T03:21:20.218Z,100451.81
2022-10-25T03:23:48.107Z,100153.25
2022-10-25T03:26:17.370Z,100244.44
2022-10-25T03:28:45.622Z,100289.31
2022-10-25T03:31:14.711Z,100076.13
2022-10-25T03:33:42.833Z,100454.63
2022-10-25T03:36:11.868Z,100465.13
2022-10-25T03:38:39.678Z,100464.44
2022-10-25T03:41:07.763Z,100166.13
2022-10-25T03:43:37.403Z,100265.09
2022-10-25T03:46:05.488Z,100451.22
2022-10-25T03:48:33.534Z,100459.81
2022-10-25T03:51:01.507Z,100459.81
2022-10-25T03:53:29.373Z,100165.47
2022-10-25T03:55:57.377Z,100448.84
2022-10-25T03:58:25.447Z,100470.53
2022-10-25T04:00:54.878Z,100310.28
2022-10-25T04:03:22.848Z,100148.53
2022-10-25T04:05:50.686Z,100380.38
2022-10-25T04:08:18.474Z,100466.53
2022-10-25T04:10:46.331Z,100313.09
2022-10-25T04:13:14.296Z,100361.09
2022-10-25T04:15:42.331Z,100370.44
2022-10-25T04:18:11.636Z,100224.53
2022-10-25T04:20:39.620Z,100337.28
2022-10-25T04:23:07.599Z,100187.97
2022-10-25T04:25:35.489Z,100197.19
2022-10-25T04:28:04.480Z,100198.84
2022-10-25T04:30:36.507Z,100467.53
2022-10-25T04:33:06.908Z,100123.84
2022-10-25T04:35:36.341Z,100468.34
2022-10-25T04:38:04.223Z,100485.66
2022-10-25T04:40:32.095Z,100517.34
2022-10-25T04:43:02.240Z,100492.97
2022-10-25T04:45:30.452Z,100493.72
2022-10-25T04:47:58.365Z,100320.19
2022-10-25T04:50:26.363Z,100499.59
2022-10-25T04:52:55.617Z,100471.19
2022-10-25T04:55:23.470Z,100502.13
2022-10-25T04:57:52.671Z,100403.22
2022-10-25T05:00:20.851Z,100412.00
2022-10-25T05:02:49.085Z,99907.59
2022-10-25T05:05:17.389Z,100520.31
2022-10-25T05:07:45.272Z,100510.09
2022-10-25T05:10:14.539Z,100402.47
2022-10-25T05:12:42.795Z,100511.88
2022-10-25T05:15:11.755Z,100263.28
2022-10-25T05:17:39.607Z,100449.38
2022-10-25T05:20:08.343Z,100413.28
2022-10-25T05:22:36.263Z,100511.56
2022-10-25T05:25:04.363Z,100516.88
2022-10-25T05:27:37.410Z,100341.00
2022-10-25T05:30:06.116Z,100526.47
2022-10-25T05:32:33.925Z,100461.19
2022-10-25T05:35:02.012Z,100539.97
2022-10-25T05:37:29.813Z,100438.25
2022-10-25T05:39:57.635Z,100534.41
2022-10-25T05:42:25.441Z,100483.03
2022-10-25T05:44:55.290Z,100392.91
2022-10-25T05:47:23.001Z,100543.00
2022-10-25T05:49:54.123Z,100539.75
2022-10-25T05:52:22.167Z,100478.44
2022-10-25T05:54:50.531Z,100470.97
2022-10-25T05:57:18.392Z,100546.38
2022-10-25T05:59:47.505Z,100546.16
2022-10-25T06:02:17.137Z,100552.13
2022-10-25T06:04:48.920Z,100323.41
2022-10-25T06:07:19.403Z,100557.06
2022-10-25T06:09:47.198Z,100110.63
2022-10-25T06:12:14.957Z,100549.06
2022-10-25T06:14:42.729Z,100559.19
2022-10-25T06:17:10.468Z,100432.56
2022-10-25T06:19:40.028Z,100566.53
2022-10-25T06:22:07.738Z,100562.97
2022-10-25T06:24:35.470Z,100562.03
2022-10-25T06:27:03.247Z,100519.19
2022-10-25T06:29:33.692Z,100540.94
2022-10-25T06:32:02.659Z,100212.34
2022-10-25T06:34:48.294Z,100584.38
2022-10-25T06:37:26.300Z,100585.03
2022-10-25T06:40:33.484Z,100588.25
2022-10-25T06:58:54.894Z,100613.22
2022-10-25T07:01:26.499Z,100625.88
2022-10-25T07:03:55.473Z,100579.47
2022-10-25T07:09:26.685Z,100558.56
2022-10-25T07:15:21.026Z,100638.19
2022-10-25T07:17:51.096Z,100393.06
2022-10-25T07:23:21.079Z,100640.97
2022-10-25T07:25:48.732Z,100645.25
2022-10-25T07:28:16.514Z,100646.59
2022-10-25T07:30:48.182Z,100616.00
2022-10-25T07:33:20.661Z,100643.78
2022-10-25T07:36:06.269Z,100653.41
2022-10-25T07:38:37.271Z,100655.22
2022-10-25T07:41:06.019Z,100544.84
2022-10-25T07:43:34.432Z,100563.81
2022-10-25T07:46:02.569Z,100530.22
2022-10-25T07:48:32.072Z,100653.34
2022-10-25T07:51:04.151Z,100606.00
2022-10-25T07:53:32.330Z,100503.06
2022-10-25T07:56:00.207Z,100434.34
2022-10-25T07:58:28.064Z,100645.44
2022-10-25T08:01:01.978Z,100570.41
2022-10-25T08:03:32.525Z,100605.16
2022-10-25T08:06:01.092Z,100618.75
2022-10-25T08:08:29.068Z,100398.31
2022-10-25T08:10:57.726Z,100258.31
2022-10-25T08:13:25.517Z,100639.44
2022-10-25T08:15:54.714Z,100342.22
2022-10-25T08:18:23.706Z,100500.06
2022-10-25T08:21:08.256Z,100644.03
2022-10-25T08:23:36.839Z,100301.75
2022-10-25T08:26:05.132Z,100578.56
2022-10-25T08:29:06.191Z,100651.16
2022-10-25T08:31:34.131Z,100449.66
2022-10-25T08:34:02.023Z,100577.22
2022-10-25T08:36:31.185Z,100647.97
2022-10-25T08:38:58.975Z,100651.78
2022-10-25T08:41:38.861Z,100649.78
2022-10-25T08:44:15.886Z,100639.31
2022-10-25T08:46:50.055Z,100579.91
2022-10-25T08:49:25.569Z,100290.72
2022-10-25T08:51:56.581Z,100599.41
2022-10-25T08:54:28.846Z,100610.84
2022-10-25T08:57:15.140Z,100633.31
2022-10-25T08:59:46.139Z,100630.25
2022-10-25T09:02:20.303Z,100619.53
2022-10-25T09:04:50.925Z,100624.31
2022-10-25T09:07:55.031Z,100632.72
2022-10-25T09:10:45.716Z,100634.50
2022-10-25T09:13:26.178Z,100631.78
2022-10-25T09:16:03.672Z,100621.19
2022-10-25T09:18:40.046Z,100641.47
2022-10-25T09:21:16.493Z,100651.91
2022-10-25T09:24:07.050Z,100656.41
2022-10-25T09:26:41.959Z,100622.63
2022-10-25T09:29:19.686Z,100668.53
2022-10-25T09:31:52.238Z,100568.97
2022-10-25T09:34:22.776Z,100670.56
2022-10-25T09:36:55.054Z,100678.19
2022-10-25T09:39:34.912Z,100686.88
2022-10-25T09:42:05.073Z,100683.97
2022-10-25T09:44:39.698Z,100689.31
2022-10-25T09:47:17.823Z,100694.22
2022-10-25T09:49:53.934Z,100672.50
2022-10-25T09:52:30.086Z,100696.63
2022-10-25T09:55:14.622Z,100703.50
2022-10-25T09:57:43.046Z,100705.56
2022-10-25T10:00:14.386Z,100710.09
2022-10-25T10:02:42.588Z,100711.75
2022-10-25T10:05:17.831Z,100718.97
2022-10-25T10:07:47.480Z,100646.88
2022-10-25T10:10:18.894Z,100667.53
2022-10-25T10:12:50.996Z,100714.69
2022-10-25T10:15:23.533Z,100716.41
2022-10-25T10:18:20.430Z,100720.88
2022-10-25T10:20:58.973Z,100731.66
2022-10-25T10:23:27.782Z,100736.34
2022-10-25T10:25:56.986Z,100745.88
2022-10-25T10:28:24.720Z,100743.13
2022-10-25T10:30:57.804Z,100748.06
2022-10-25T10:33:28.424Z,100745.06
2022-10-25T10:35:56.252Z,100710.03
2022-10-25T10:38:26.468Z,100740.44
2022-10-25T10:41:14.232Z,100738.50
2022-10-25T10:43:42.134Z,100736.59
2022-10-25T10:46:14.662Z,100740.06
2022-10-25T10:48:46.051Z,100734.81
2022-10-25T10:51:43.083Z,100739.22
2022-10-25T10:54:15.615Z,100713.22
2022-10-25T10:56:44.649Z,100738.38
2022-10-25T10:59:29.251Z,100666.19
2022-10-25T11:01:57.394Z,100747.34
2022-10-25T11:04:26.257Z,100747.00
2022-10-25T11:06:54.408Z,100717.66
2022-10-25T11:09:24.948Z,100753.16
2022-10-25T11:12:11.658Z,100735.06
2022-10-25T11:14:39.511Z,100749.72
2022-10-25T11:17:13.368Z,100745.75
2022-10-25T11:20:03.650Z,100728.16
2022-10-25T11:22:42.205Z,100736.84
2022-10-25T11:25:22.325Z,100749.38
2022-10-25T11:28:07.011Z,100748.88
2022-10-25T11:30:42.223Z,100742.81
2022-10-25T11:33:29.058Z,100755.41
2022-10-25T11:36:16.275Z,100743.69
2022-10-25T11:38:53.720Z,100646.66
2022-10-25T11:41:32.993Z,100714.84
2022-10-25T11:44:23.910Z,100740.06
2022-10-25T11:46:57.307Z,100736.94
2022-10-25T11:49:42.034Z,100737.25
2022-10-25T11:52:30.151Z,100729.53
2022-10-25T11:55:06.852Z,100729.16
2022-10-25T11:57:44.391Z,100728.63
2022-10-25T12:00:18.031Z,100691.47
2022-10-25T12:03:08.922Z,100733.50
2022-10-25T12:05:41.655Z,100728.94
2022-10-25T12:08:23.633Z,100703.50
2022-10-25T12:10:56.055Z,100736.97
2022-10-25T12:13:29.649Z,100734.00
2022-10-25T12:16:00.312Z,100737.25
2022-10-25T12:18:33.589Z,100736.53
2022-10-25T12:21:02.871Z,100679.19
2022-10-25T12:23:37.504Z,100732.63
2022-10-25T12:26:08.044Z,100675.91
2022-10-25T12:28:44.651Z,100728.13
2022-10-25T12:31:18.082Z,100713.16
2022-10-25T12:33:51.234Z,100710.63
2022-10-25T12:36:27.420Z,100727.44
2022-10-25T12:38:57.423Z,100678.72
2022-10-25T12:41:29.630Z,100695.34
2022-10-25T12:44:15.742Z,100724.72
2022-10-25T12:47:15.640Z,100715.28
2022-10-25T12:50:20.989Z,100715.13
2022-10-25T12:53:13.758Z,100681.44
2022-10-25T12:55:57.283Z,100715.56
2022-10-25T12:58:43.590Z,100717.38
2022-10-25T13:01:33.142Z,100718.19
2022-10-25T13:04:18.491Z,100701.41
2022-10-25T13:06:47.739Z,100716.38
2022-10-25T13:09:21.047Z,100715.66
2022-10-25T13:11:59.394Z,100689.22
2022-10-25T13:14:30.121Z,100712.19
2022-10-25T13:17:35.470Z,100709.63
2022-10-25T13:20:45.012Z,100706.66
2022-10-25T13:23:58.335Z,100710.06
2022-10-25T13:26:30.518Z,100703.31
2022-10-25T13:29:00.035Z,100677.25
2022-10-25T13:32:10.247Z,100704.41
2022-10-25T13:34:40.327Z,100716.06
2022-10-25T13:37:44.531Z,100706.66
2022-10-25T13:40:26.110Z,100713.97
2022-10-25T13:43:06.201Z,100714.81
2022-10-25T13:45:41.605Z,100717.31
2022-10-25T13:48:18.595Z,100705.63
2022-10-25T13:50:48.559Z,100720.13
2022-10-25T13:53:23.129Z,100708.47
2022-10-25T13:56:00.675Z,100696.25
2022-10-25T13:58:44.473Z,100697.69
2022-10-25T14:01:54.683Z,100711.53
2022-10-25T14:04:34.256Z,100712.94
2022-10-25T14:07:53.785Z,100703.91
2022-10-25T14:10:28.891Z,100686.25
2022-10-25T14:13:12.114Z,100688.59
2022-10-25T14:15:47.820Z,100697.53
2022-10-25T14:18:20.415Z,100654.09
2022-10-25T14:20:51.168Z,100698.28
2022-10-25T14:23:22.915Z,100694.28
2022-10-25T14:25:54.450Z,100689.88
2022-10-25T14:28:25.655Z,100698.28
2022-10-25T14:30:55.618Z,100694.31
2022-10-25T14:33:26.713Z,100690.50
2022-10-25T14:35:57.391Z,100691.03
2022-10-25T14:38:27.200Z,100645.31
2022-10-25T14:40:57.039Z,100691.47
2022-10-25T14:43:30.413Z,100684.91
2022-10-25T14:46:01.353Z,100690.56
2022-10-25T14:48:29.667Z,100695.38
2022-10-25T14:50:59.944Z,100618.28
2022-10-25T14:53:28.535Z,100684.81
2022-10-25T14:55:59.375Z,100688.06
2022-10-25T14:58:32.638Z,100640.22
2022-10-25T15:01:04.693Z,100621.22
2022-10-25T15:03:33.380Z,100674.91
2022-10-25T15:06:01.390Z,100674.94
2022-10-25T15:08:29.458Z,100668.78
2022-10-25T15:11:00.035Z,100672.00
2022-10-25T15:13:31.785Z,100666.38
2022-10-25T15:16:03.450Z,100665.22
2022-10-25T15:18:35.899Z,100621.78
2022-10-25T15:21:07.160Z,100608.88
2022-10-25T15:23:35.464Z,100674.47
2022-10-25T15:26:26.823Z,100669.69
2022-10-25T15:28:58.503Z,100674.28
2022-10-25T15:31:27.900Z,100665.28
2022-10-25T15:34:00.076Z,100582.16
2022-10-25T15:36:29.588Z,100667.22
2022-10-25T15:39:11.404Z,100594.84
2022-10-25T15:41:41.951Z,100657.09
2022-10-25T15:44:11.039Z,100664.38
2022-10-25T15:46:40.135Z,100665.63
2022-10-25T15:49:08.904Z,100660.72
2022-10-25T15:51:39.607Z,100666.34
2022-10-25T15:54:15.517Z,100649.25
2022-10-25T15:56:43.802Z,100657.06
2022-10-25T15:59:14.450Z,100613.75
2022-10-25T16:01:45.073Z,100638.72
2022-10-25T16:04:15.642Z,100659.25
2022-10-25T16:06:44.081Z,100659.25
2022-10-25T16:09:11.942Z,100660.91
2022-10-25T16:11:46.286Z,100659.22
2022-10-25T16:14:22.395Z,100666.09
2022-10-25T16:16:50.817Z,100673.13
2022-10-25T16:19:21.441Z,100667.88
2022-10-25T16:21:49.302Z,100668.59
2022-10-25T16:24:17.024Z,100620.69
2022-10-25T16:26:47.167Z,100671.41
2022-10-25T16:29:16.743Z,100671.16
2022-10-25T16:31:46.147Z,100667.38
2022-10-25T16:34:15.405Z,100668.63
2022-10-25T16:36:43.209Z,100669.72
2022-10-25T16:39:12.062Z,100669.06
2022-10-25T16:41:41.544Z,100604.69
2022-10-25T16:44:11.567Z,100658.56
2022-10-25T16:46:39.326Z,100616.75
2022-10-25T16:49:09.533Z,100675.34
2022-10-25T16:51:38.242Z,100672.22
2022-10-25T16:54:06.621Z,100668.38
2022-10-25T16:56:34.403Z,100615.16
2022-10-25T16:59:02.167Z,100649.00
2022-10-25T17:01:32.327Z,100662.59
2022-10-25T17:04:01.147Z,100656.97
2022-10-25T17:06:45.667Z,100664.31
2022-10-25T17:09:13.515Z,100638.72
2022-10-25T17:11:41.839Z,100661.78
2022-10-25T17:14:10.924Z,100654.44
2022-10-25T17:16:40.428Z,100660.13
2022-10-25T17:19:08.208Z,100659.75
2022-10-25T17:21:37.290Z,100656.78
2022-10-25T17:24:06.538Z,100657.13
2022-10-25T17:26:34.224Z,100654.09
2022-10-25T17:29:02.076Z,100665.63
2022-10-25T17:31:32.330Z,100663.28
2022-10-25T17:34:00.927Z,100584.56
2022-10-25T17:36:31.562Z,100663.75
2022-10-25T17:39:01.442Z,100564.13
2022-10-25T17:41:29.170Z,100659.25
2022-10-25T17:43:57.161Z,100664.88
2022-10-25T17:46:27.581Z,100650.66
2022-10-25T17:49:02.933Z,100651.94
2022-10-25T17:51:31.654Z,100652.44
2022-10-25T17:54:00.886Z,100656.31
2022-10-25T17:56:29.051Z,100660.94
2022-10-25T17:58:58.184Z,100648.34
2022-10-25T18:01:27.419Z,100660.66
2022-10-25T18:03:56.042Z,100590.38
2022-10-25T18:06:25.953Z,100668.16
2022-10-25T18:08:54.852Z,100609.63
2022-10-25T18:11:25.893Z,100665.34
2022-10-25T18:13:55.242Z,100621.88
2022-10-25T18:16:26.314Z,100661.50
2022-10-25T18:18:54.390Z,100667.78
2022-10-25T18:21:22.120Z,100661.94
2022-10-25T18:23:50.414Z,100617.75
2022-10-25T18:26:18.340Z,100580.34
2022-10-25T18:28:47.849Z,100653.66
2022-10-25T18:31:20.469Z,100411.88
2022-10-25T18:33:48.958Z,100664.88
2022-10-25T18:36:19.652Z,100417.09
2022-10-25T18:38:49.024Z,100475.88
2022-10-25T18:41:19.833Z,100199.31
2022-10-25T18:43:50.583Z,100407.84
2022-10-25T18:46:18.913Z,100365.47
2022-10-25T18:48:51.636Z,100528.38
2022-10-25T18:51:21.593Z,100491.97
2022-10-25T18:53:53.507Z,100308.84
2022-10-25T18:56:22.289Z,100369.56
2022-10-25T18:58:55.111Z,100520.91
2022-10-25T19:01:26.160Z,100321.88
2022-10-25T19:03:54.602Z,100279.47
2022-10-25T19:06:22.642Z,100645.84
2022-10-25T19:08:50.908Z,100479.84
2022-10-25T19:11:18.975Z,100288.88
2022-10-25T19:13:50.393Z,100495.03
2022-10-25T19:16:20.865Z,100310.75
2022-10-25T19:18:49.099Z,100524.50
2022-10-25T19:21:18.578Z,100657.69
2022-10-25T19:23:47.643Z,100256.66
2022-10-25T19:26:18.656Z,100367.66
2022-10-25T19:28:46.809Z,100343.44
2022-10-25T19:31:16.765Z,100453.75
2022-10-25T19:33:48.251Z,100635.94
2022-10-25T19:36:17.308Z,100637.56
2022-10-25T19:38:48.222Z,100475.31
2022-10-25T19:41:18.699Z,100636.91
2022-10-25T19:43:47.499Z,100617.31
2022-10-25T19:46:16.351Z,100477.34
2022-10-25T19:48:44.415Z,100341.34
2022-10-25T19:51:15.750Z,100137.81
2022-10-25T19:53:44.781Z,100425.22
2022-10-25T19:56:14.811Z,100287.41
2022-10-25T19:58:43.651Z,100224.47
2022-10-25T20:01:13.763Z,100593.22
2022-10-25T20:03:43.091Z,100317.88
2022-10-25T20:06:17.545Z,100442.84
2022-10-25T20:08:48.357Z,100235.81
2022-10-25T20:11:18.359Z,100641.66
2022-10-25T20:13:46.611Z,100180.91
2022-10-25T20:16:15.464Z,100260.75
2022-10-25T20:18:43.919Z,100117.66
2022-10-25T20:21:15.954Z,100234.44
2022-10-25T20:23:49.418Z,100630.91
2022-10-25T20:26:19.424Z,100434.75
2022-10-25T20:28:48.533Z,100635.38
2022-10-25T20:31:19.393Z,100088.44
2022-10-25T20:33:47.536Z,100440.78
2022-10-25T20:36:17.680Z,100441.13
2022-10-25T20:38:46.653Z,100530.00
2022-10-25T20:41:16.475Z,100289.28
2022-10-25T20:43:47.803Z,100131.19
2022-10-25T20:46:17.089Z,100284.31
2022-10-25T20:48:46.564Z,100430.94
2022-10-25T20:51:17.157Z,100615.44
2022-10-25T20:53:46.709Z,100395.47
2022-10-25T20:56:15.584Z,100075.56
2022-10-25T20:58:43.893Z,100039.00
2022-10-25T21:01:13.107Z,100095.88
2022-10-25T21:03:42.036Z,100616.78
2022-10-25T21:06:14.716Z,100304.59
2022-10-25T21:08:44.996Z,100405.69
2022-10-25T21:11:14.631Z,100098.19
2022-10-25T21:13:43.449Z,100259.22
2022-10-25T21:16:14.907Z,100478.56
2022-10-25T21:18:44.102Z,100219.16
2022-10-25T21:21:17.989Z,100093.78
2022-10-25T21:23:48.372Z,100402.53
2022-10-25T21:26:17.675Z,100221.00
2022-10-25T21:28:49.477Z,100615.56
2022-10-25T21:31:21.410Z,100596.59
2022-10-25T21:33:53.182Z,100554.38
2022-10-25T21:36:22.742Z,100362.09
2022-10-25T21:38:53.389Z,100486.38
2022-10-25T21:41:27.311Z,100582.59
2022-10-25T21:43:57.071Z,100113.38
2022-10-25T21:46:27.895Z,100421.31
2022-10-25T21:48:56.884Z,100255.03
2022-10-25T21:51:25.497Z,100602.28
2022-10-25T21:53:55.908Z,100211.03
2022-10-25T21:56:31.127Z,100280.63
2022-10-25T21:59:00.983Z,100399.06
2022-10-25T22:01:30.791Z,100553.69
2022-10-25T22:03:59.502Z,100578.84
2022-10-25T22:06:28.569Z,99949.91
2022-10-25T22:08:58.727Z,100400.84
2022-10-25T22:11:28.812Z,100553.25
2022-10-25T22:13:58.562Z,100565.81
2022-10-25T22:16:27.679Z,100375.16
2022-10-25T22:18:58.797Z,100176.59
2022-10-25T22:21:29.129Z,100073.56
2022-10-25T22:23:58.832Z,100421.94
2022-10-25T22:26:27.965Z,100082.69
2022-10-25T22:28:57.656Z,100365.59
2022-10-25T22:31:27.396Z,100581.38
2022-10-25T22:33:56.947Z,100525.72
2022-10-25T22:36:27.794Z,100534.03
2022-10-25T22:38:56.798Z,100362.63
2022-10-25T22:41:29.342Z,100014.97
2022-10-25T22:43:58.663Z,100221.28
2022-10-25T22:46:28.637Z,100201.84
2022-10-25T22:48:58.558Z,100370.50
2022-10-25T22:51:29.114Z,100247.34
2022-10-25T22:53:57.538Z,100561.84
2022-10-25T22:56:28.995Z,100174.22
2022-10-25T22:58:59.775Z,100226.59
2022-10-25T23:01:29.117Z,100388.00
2022-10-25T23:03:58.789Z,100053.75
2022-10-25T23:06:29.137Z,100225.50
2022-10-25T23:08:59.034Z,100288.50
2022-10-25T23:11:29.919Z,100252.53
2022-10-25T23:13:58.744Z,100386.38
2022-10-25T23:16:28.086Z,100246.56
2022-10-25T23:18:56.788Z,100519.84
2022-10-25T23:21:27.022Z,100382.19
2022-10-25T23:23:56.385Z,100035.56
2022-10-25T23:26:26.979Z,100485.25
2022-10-25T23:28:57.173Z,100415.03
2022-10-25T23:31:26.086Z,100546.84
2022-10-25T23:33:55.822Z,100575.06
2022-10-25T23:36:26.074Z,100260.28
2022-10-25T23:38:55.594Z,100419.88
2022-10-25T23:41:24.821Z,100386.28
2022-10-25T23:43:53.101Z,100372.84
2022-10-25T23:46:23.140Z,100201.00
2022-10-25T23:48:51.233Z,100551.25
2022-10-25T23:51:20.149Z,100103.41
2022-10-25T23:53:49.101Z,100463.53
2022-10-25T23:56:17.474Z,100461.47
2022-10-25T23:58:45.529Z,100219.84
